Terminal Aerodrome Forecast
Issued by NWS Shreveport, LA

Home | Current Version | Previous Version | Text Only | Print | Product List | Glossary On
Versions: 1 2 3 4 5 6 7 8 9 10 11 12 13
425
FTUS44 KSHV 081120
TAFTXK
TAF
KTXK 081120Z 0812/0912 30009KT P6SM SKC
     FM081500 30018G26KT P6SM SKC
     FM081700 30020G30KT P6SM SKC
     FM090000 30012KT P6SM SKC
     FM090300 28006KT P6SM SKC=

USA.gov is the U.S. government's official web portal to all federal, state and local government web resources and services.